createdAt,value
2018-05-14T00:00:07.069Z,14.50
2018-05-14T00:02:34.524Z,14.40
2018-05-14T00:05:02.716Z,14.40
2018-05-14T00:07:30.164Z,14.30
2018-05-14T00:09:57.628Z,14.40
2018-05-14T00:12:25.998Z,14.40
2018-05-14T00:14:53.461Z,14.30
2018-05-14T00:17:20.919Z,14.30
2018-05-14T00:19:48.371Z,14.20
2018-05-14T00:22:17.105Z,14.20
2018-05-14T00:24:44.555Z,14.20
2018-05-14T00:27:12.036Z,14.20
2018-05-14T00:29:40.066Z,14.20
2018-05-14T00:32:08.337Z,14.20
2018-05-14T00:34:36.597Z,14.20
2018-05-14T00:37:04.475Z,14.20
2018-05-14T00:39:32.005Z,14.20
2018-05-14T00:41:59.936Z,14.20
2018-05-14T00:44:27.400Z,14.20
2018-05-14T00:46:54.856Z,14.20
2018-05-14T00:49:22.791Z,14.20
2018-05-14T00:51:50.675Z,14.20
2018-05-14T00:54:18.896Z,14.30
2018-05-14T00:56:46.868Z,14.30
2018-05-14T00:59:14.549Z,14.30
2018-05-14T01:01:42.000Z,14.30
2018-05-14T01:04:09.478Z,14.30
2018-05-14T01:06:37.034Z,14.40
2018-05-14T01:09:05.251Z,14.30
2018-05-14T01:11:32.708Z,14.30
2018-05-14T01:14:00.176Z,14.30
2018-05-14T01:16:27.635Z,14.30
2018-05-14T01:18:55.087Z,14.20
2018-05-14T01:21:23.151Z,14.20
2018-05-14T01:23:50.639Z,14.20
2018-05-14T01:26:18.102Z,14.20
2018-05-14T01:28:45.554Z,14.20
2018-05-14T01:31:13.016Z,14.20
2018-05-14T01:33:40.480Z,14.20
2018-05-14T01:36:07.935Z,14.20
2018-05-14T01:38:35.401Z,14.20
2018-05-14T01:41:02.889Z,14.20
2018-05-14T01:43:31.101Z,14.10
2018-05-14T01:45:58.561Z,14.10
2018-05-14T01:48:26.024Z,14.10
2018-05-14T01:50:55.086Z,14.10
2018-05-14T01:53:22.988Z,14.00
2018-05-14T01:55:50.440Z,14.00
2018-05-14T01:58:17.924Z,14.00
2018-05-14T02:00:46.147Z,14.00
2018-05-14T02:03:13.596Z,14.00
2018-05-14T02:05:41.065Z,14.10
2018-05-14T02:08:08.524Z,14.10
2018-05-14T02:10:35.984Z,14.10
2018-05-14T02:13:03.442Z,14.10
2018-05-14T02:15:31.401Z,14.10
2018-05-14T02:17:58.853Z,14.00
2018-05-14T02:20:26.331Z,14.00
2018-05-14T02:22:53.780Z,14.00
2018-05-14T02:25:21.237Z,14.00
2018-05-14T02:27:48.700Z,13.90
2018-05-14T02:30:16.184Z,14.00
2018-05-14T02:32:43.688Z,14.00
2018-05-14T02:35:11.101Z,14.00
2018-05-14T02:37:38.564Z,14.00
2018-05-14T02:40:06.026Z,13.90
2018-05-14T02:42:34.871Z,13.90
2018-05-14T02:45:02.636Z,13.90
2018-05-14T02:47:30.504Z,13.90
2018-05-14T02:49:58.407Z,13.90
2018-05-14T02:52:25.860Z,13.90
2018-05-14T02:54:53.737Z,13.80
2018-05-14T02:57:21.196Z,13.70
2018-05-14T02:59:48.675Z,13.70
2018-05-14T03:02:16.894Z,13.50
2018-05-14T03:04:44.752Z,13.50
2018-05-14T03:07:12.124Z,13.50
2018-05-14T03:09:39.585Z,13.50
2018-05-14T03:12:07.053Z,13.40
2018-05-14T03:14:34.508Z,13.40
2018-05-14T03:17:02.386Z,13.30
2018-05-14T03:19:30.556Z,13.30
2018-05-14T03:21:58.019Z,13.40
2018-05-14T03:24:25.520Z,13.30
2018-05-14T03:26:52.982Z,13.30
2018-05-14T03:29:20.431Z,13.30
2018-05-14T03:31:47.912Z,13.40
2018-05-14T03:34:15.364Z,13.30
2018-05-14T03:36:42.832Z,13.30
2018-05-14T03:39:13.013Z,13.30
2018-05-14T03:41:41.252Z,13.20
2018-05-14T03:44:08.712Z,13.20
2018-05-14T03:46:36.171Z,13.30
2018-05-14T03:49:03.664Z,13.30
2018-05-14T03:54:05.092Z,13.20
2018-05-14T03:56:32.561Z,13.10
2018-05-14T03:59:12.404Z,13.10
2018-05-14T04:01:51.860Z,13.10
2018-05-14T04:04:31.899Z,13.00
2018-05-14T04:07:00.178Z,13.00
2018-05-14T04:09:29.227Z,13.00
2018-05-14T04:11:56.688Z,13.00
2018-05-14T04:14:24.144Z,13.00
2018-05-14T04:16:51.596Z,13.00
2018-05-14T04:19:19.487Z,13.00
2018-05-14T04:21:47.272Z,12.90
2018-05-14T04:24:14.744Z,12.90
2018-05-14T04:26:43.673Z,12.90
2018-05-14T04:29:11.448Z,12.90
2018-05-14T04:31:38.909Z,12.90
2018-05-14T04:34:06.367Z,12.90
2018-05-14T04:36:34.218Z,13.00
2018-05-14T04:39:01.673Z,13.00
2018-05-14T04:41:29.136Z,13.00
2018-05-14T04:43:56.596Z,13.00
2018-05-14T04:46:24.608Z,13.00
2018-05-14T04:48:52.841Z,13.10
2018-05-14T04:51:20.291Z,13.10
2018-05-14T04:53:50.364Z,13.20
2018-05-14T04:56:18.592Z,13.20
2018-05-14T04:58:46.043Z,13.20
2018-05-14T05:01:13.778Z,13.30
2018-05-14T05:03:41.260Z,13.30
2018-05-14T05:06:09.372Z,13.40
2018-05-14T05:08:39.396Z,13.40
2018-05-14T05:11:06.870Z,13.50
2018-05-14T05:13:35.096Z,13.70
2018-05-14T05:16:02.577Z,13.70
2018-05-14T05:18:30.035Z,13.80
2018-05-14T05:20:57.488Z,13.90
2018-05-14T05:23:25.568Z,14.10
2018-05-14T05:25:53.030Z,14.10
2018-05-14T05:28:20.550Z,14.20
2018-05-14T05:30:47.997Z,14.30
2018-05-14T05:33:15.464Z,14.40
2018-05-14T05:35:43.217Z,14.40
2018-05-14T05:38:10.713Z,14.40
2018-05-14T05:40:38.194Z,14.50
2018-05-14T05:43:06.412Z,14.70
2018-05-14T05:45:34.325Z,14.60
2018-05-14T05:48:02.547Z,14.70
2018-05-14T05:50:30.017Z,14.70
2018-05-14T05:52:57.469Z,14.70
2018-05-14T05:55:24.936Z,14.60
2018-05-14T05:57:53.265Z,14.60
2018-05-14T06:00:21.489Z,14.60
2018-05-14T06:02:48.949Z,14.60
2018-05-14T06:05:17.140Z,14.60
2018-05-14T06:07:44.992Z,14.70
2018-05-14T06:10:12.458Z,14.70
2018-05-14T06:12:39.920Z,14.80
2018-05-14T06:15:07.378Z,15.00
2018-05-14T06:17:34.844Z,15.00
2018-05-14T06:20:02.316Z,15.00
2018-05-14T06:22:30.529Z,15.20
2018-05-14T06:24:57.995Z,15.20
2018-05-14T06:27:25.503Z,15.30
2018-05-14T06:29:54.152Z,15.20
2018-05-14T06:32:21.640Z,15.20
2018-05-14T06:34:49.885Z,15.20
2018-05-14T06:37:17.645Z,15.20
2018-05-14T06:39:45.121Z,15.30
2018-05-14T06:42:12.578Z,15.40
2018-05-14T06:44:40.041Z,15.60
2018-05-14T06:47:07.512Z,15.70
2018-05-14T06:49:35.360Z,16.20
2018-05-14T06:52:02.825Z,16.70
2018-05-14T06:54:30.290Z,17.10
2018-05-14T06:56:57.764Z,17.20
2018-05-14T06:59:26.039Z,17.00
2018-05-14T07:01:53.640Z,17.00
2018-05-14T07:04:21.107Z,17.00
2018-05-14T07:06:49.295Z,17.00
2018-05-14T07:09:17.264Z,17.10
2018-05-14T07:11:44.746Z,17.40
2018-05-14T07:14:12.960Z,17.60
2018-05-14T07:16:40.416Z,17.60
2018-05-14T07:19:07.874Z,17.60
2018-05-14T07:21:35.380Z,17.60
2018-05-14T07:24:02.836Z,17.50
2018-05-14T07:26:30.435Z,17.30
2018-05-14T07:28:58.540Z,16.90
2018-05-14T07:31:25.998Z,16.80
2018-05-14T07:33:53.461Z,16.90
2018-05-14T07:36:20.925Z,16.80
2018-05-14T07:38:48.392Z,16.80
2018-05-14T07:41:15.849Z,16.80
2018-05-14T07:43:43.304Z,16.80
2018-05-14T07:46:10.764Z,17.00
2018-05-14T07:48:38.220Z,17.20
2018-05-14T07:51:05.671Z,17.30
2018-05-14T07:53:33.133Z,17.50
2018-05-14T07:56:01.022Z,17.50
2018-05-14T07:58:29.240Z,17.70
2018-05-14T08:00:56.715Z,17.70
2018-05-14T08:03:24.185Z,17.80
2018-05-14T08:05:51.728Z,18.10
2018-05-14T08:08:19.661Z,18.50
2018-05-14T08:10:47.134Z,18.60
2018-05-14T08:13:14.597Z,18.60
2018-05-14T08:15:42.482Z,18.60
2018-05-14T08:18:09.953Z,18.60
2018-05-14T08:20:37.423Z,18.80
2018-05-14T08:23:04.877Z,19.10
2018-05-14T08:25:32.415Z,19.50
2018-05-14T08:27:59.876Z,19.60
2018-05-14T08:30:27.366Z,19.70
2018-05-14T08:32:55.669Z,19.90
2018-05-14T08:35:24.514Z,19.90
2018-05-14T08:37:52.376Z,20.30
2018-05-14T08:40:19.833Z,20.60
2018-05-14T08:42:47.849Z,20.80
2018-05-14T08:45:16.417Z,20.50
2018-05-14T08:47:44.900Z,20.40
2018-05-14T08:50:13.536Z,20.00
2018-05-14T08:52:42.868Z,20.00
2018-05-14T08:55:10.321Z,19.80
2018-05-14T08:57:37.844Z,19.50
2018-05-14T09:00:06.087Z,19.10
2018-05-14T09:02:33.507Z,19.10
2018-05-14T09:05:01.936Z,18.80
2018-05-14T09:07:29.395Z,18.50
2018-05-14T09:09:57.432Z,18.40
2018-05-14T09:12:25.671Z,17.80
2018-05-14T09:14:53.121Z,17.80
2018-05-14T09:17:20.584Z,17.40
2018-05-14T09:19:48.084Z,17.10
2018-05-14T09:22:16.304Z,16.60
2018-05-14T09:24:43.759Z,16.60
2018-05-14T09:27:11.220Z,16.40
2018-05-14T09:29:38.703Z,16.30
2018-05-14T09:32:06.789Z,16.20
2018-05-14T09:34:35.040Z,16.00
2018-05-14T09:37:02.509Z,16.00
2018-05-14T09:39:29.973Z,16.00
2018-05-14T09:41:57.432Z,16.00
2018-05-14T09:44:25.450Z,16.00
2018-05-14T09:46:52.907Z,16.00
2018-05-14T09:49:20.824Z,16.00
2018-05-14T09:51:48.284Z,16.00
2018-05-14T09:54:16.120Z,16.00
2018-05-14T09:56:44.084Z,16.00
2018-05-14T09:59:11.537Z,16.00
2018-05-14T10:01:38.987Z,16.10
2018-05-14T10:04:07.042Z,16.20
2018-05-14T10:06:34.502Z,16.30
2018-05-14T10:09:01.968Z,16.50
2018-05-14T10:11:30.700Z,16.60
2018-05-14T10:13:58.153Z,16.70
2018-05-14T10:16:25.626Z,16.80
2018-05-14T10:18:53.888Z,16.80
2018-05-14T10:21:21.305Z,16.80
2018-05-14T10:23:48.756Z,16.90
2018-05-14T10:26:16.247Z,16.90
2018-05-14T10:28:44.591Z,16.90
2018-05-14T10:31:12.389Z,17.00
2018-05-14T10:33:39.867Z,17.10
2018-05-14T10:36:07.324Z,17.40
2018-05-14T10:38:35.558Z,18.20
2018-05-14T10:41:03.032Z,18.20
2018-05-14T10:43:31.316Z,18.80
2018-05-14T10:45:58.774Z,19.60
2018-05-14T10:48:26.248Z,20.50
2018-05-14T10:50:55.497Z,21.60
2018-05-14T10:53:22.976Z,21.60
2018-05-14T10:55:50.597Z,22.60
2018-05-14T10:58:18.895Z,23.40
2018-05-14T11:00:47.347Z,23.70
2018-05-14T11:03:15.056Z,24.10
2018-05-14T11:05:42.496Z,24.10
2018-05-14T11:08:09.973Z,24.10
2018-05-14T11:10:37.818Z,24.60
2018-05-14T11:13:06.043Z,24.50
2018-05-14T11:15:33.635Z,24.50
2018-05-14T11:18:01.982Z,24.60
2018-05-14T11:20:30.483Z,24.40
2018-05-14T11:22:57.959Z,24.40
2018-05-14T11:25:25.511Z,24.30
2018-05-14T11:27:53.214Z,23.90
2018-05-14T11:30:20.587Z,23.60
2018-05-14T11:32:48.189Z,23.50
2018-05-14T11:35:15.685Z,24.00
2018-05-14T11:37:43.112Z,24.10
2018-05-14T11:40:11.217Z,24.30
2018-05-14T11:42:38.659Z,24.00
2018-05-14T11:45:06.121Z,24.10
2018-05-14T11:47:33.586Z,24.50
2018-05-14T11:50:01.054Z,24.80
2018-05-14T11:52:28.619Z,24.70
2018-05-14T11:54:56.089Z,25.00
2018-05-14T11:57:23.564Z,25.00
2018-05-14T11:59:51.060Z,25.10
2018-05-14T12:02:18.786Z,25.30
2018-05-14T12:04:46.240Z,25.50
2018-05-14T12:07:13.692Z,25.50
2018-05-14T12:09:42.304Z,26.00
2018-05-14T12:12:09.880Z,25.90
2018-05-14T12:14:37.259Z,25.40
2018-05-14T12:17:04.856Z,25.50
2018-05-14T12:19:32.318Z,25.00
2018-05-14T12:21:59.776Z,24.80
2018-05-14T12:24:27.318Z,24.70
2018-05-14T12:26:55.569Z,25.10
2018-05-14T12:29:23.030Z,25.10
2018-05-14T12:31:50.493Z,25.50
2018-05-14T12:34:18.045Z,25.90
2018-05-14T12:36:45.502Z,26.10
2018-05-14T12:39:12.976Z,25.50
2018-05-14T12:41:41.528Z,26.10
2018-05-14T12:44:08.989Z,26.10
2018-05-14T12:46:36.440Z,26.60
2018-05-14T12:49:03.908Z,26.80
2018-05-14T12:51:31.457Z,27.10
2018-05-14T12:53:59.756Z,27.20
2018-05-14T12:56:28.732Z,26.90
2018-05-14T12:58:56.284Z,26.90
2018-05-14T13:01:23.756Z,26.90
2018-05-14T13:03:51.211Z,27.10
2018-05-14T13:06:19.440Z,27.10
2018-05-14T13:08:46.946Z,27.00
2018-05-14T13:11:14.405Z,27.30
2018-05-14T13:13:41.963Z,27.00
2018-05-14T13:16:09.429Z,27.00
2018-05-14T13:18:36.976Z,27.20
2018-05-14T13:21:04.734Z,27.40
2018-05-14T13:23:32.210Z,27.30
2018-05-14T13:25:59.672Z,27.40
2018-05-14T13:28:27.136Z,27.90
2018-05-14T13:30:55.400Z,28.70
2018-05-14T13:33:23.689Z,29.20
2018-05-14T13:35:51.925Z,29.80
2018-05-14T13:38:19.563Z,29.80
2018-05-14T13:40:47.019Z,29.60
2018-05-14T13:43:14.923Z,29.40
2018-05-14T13:45:42.414Z,29.80
2018-05-14T13:48:11.632Z,30.20
2018-05-14T13:50:39.120Z,30.10
2018-05-14T13:53:06.871Z,30.50
2018-05-14T13:55:34.355Z,30.70
2018-05-14T13:58:02.130Z,30.70
2018-05-14T14:00:29.579Z,30.90
2018-05-14T14:02:57.050Z,31.70
2018-05-14T14:05:24.498Z,33.00
2018-05-14T14:07:53.557Z,33.70
2018-05-14T14:10:21.071Z,33.70
2018-05-14T14:12:49.296Z,30.60
2018-05-14T14:15:16.787Z,30.50
2018-05-14T14:17:44.254Z,29.10
2018-05-14T14:20:11.699Z,28.20
2018-05-14T14:22:39.151Z,27.00
2018-05-14T14:25:06.712Z,25.80
2018-05-14T14:27:34.531Z,24.90
2018-05-14T14:30:01.976Z,24.20
2018-05-14T14:32:30.198Z,23.40
2018-05-14T14:34:57.667Z,23.30
2018-05-14T14:37:25.146Z,22.80
2018-05-14T14:39:53.378Z,21.60
2018-05-14T14:42:20.925Z,21.60
2018-05-14T14:44:48.302Z,21.00
2018-05-14T14:47:15.760Z,20.30
2018-05-14T14:49:43.217Z,19.80
2018-05-14T14:52:11.119Z,19.30
2018-05-14T14:54:41.023Z,18.90
2018-05-14T14:57:08.650Z,18.70
2018-05-14T14:59:36.494Z,18.50
2018-05-14T15:02:04.652Z,18.40
2018-05-14T15:04:32.103Z,18.50
2018-05-14T15:07:00.338Z,18.30
2018-05-14T15:09:27.818Z,18.20
2018-05-14T15:11:55.307Z,18.30
2018-05-14T15:14:22.763Z,18.30
2018-05-14T15:16:50.727Z,18.20
2018-05-14T15:19:18.960Z,18.10
2018-05-14T15:21:46.396Z,18.00
2018-05-14T15:24:13.875Z,17.90
2018-05-14T15:26:41.320Z,17.80
2018-05-14T15:29:08.780Z,17.70
2018-05-14T15:31:36.253Z,17.70
2018-05-14T15:34:03.716Z,17.70
2018-05-14T15:36:31.634Z,17.60
2018-05-14T15:38:59.108Z,17.60
2018-05-14T15:41:26.668Z,17.60
2018-05-14T15:43:54.036Z,17.60
2018-05-14T15:46:21.502Z,17.60
2018-05-14T15:48:48.998Z,17.60
2018-05-14T15:51:17.215Z,17.60
2018-05-14T15:53:44.788Z,17.60
2018-05-14T15:56:12.950Z,17.60
2018-05-14T15:58:40.531Z,17.60
2018-05-14T16:01:07.999Z,17.60
2018-05-14T16:03:35.917Z,17.60
2018-05-14T16:06:03.377Z,17.70
2018-05-14T16:08:30.828Z,17.80
2018-05-14T16:11:00.990Z,17.90
2018-05-14T16:13:28.454Z,17.90
2018-05-14T16:15:55.909Z,18.00
2018-05-14T16:18:23.373Z,18.10
2018-05-14T16:20:50.892Z,18.10
2018-05-14T16:23:18.282Z,18.20
2018-05-14T16:25:46.441Z,18.30
2018-05-14T16:28:13.892Z,18.40
2018-05-14T16:30:41.643Z,18.40
2018-05-14T16:33:09.606Z,18.40
2018-05-14T16:35:37.068Z,18.50
2018-05-14T16:38:04.516Z,18.60
2018-05-14T16:40:32.017Z,18.70
2018-05-14T16:42:59.473Z,18.80
2018-05-14T16:45:26.948Z,19.10
2018-05-14T16:47:55.748Z,19.40
2018-05-14T16:50:24.051Z,19.40
2018-05-14T16:52:51.436Z,19.30
2018-05-14T16:55:18.892Z,19.30
2018-05-14T16:57:46.810Z,19.20
2018-05-14T17:00:14.185Z,19.20
2018-05-14T17:02:42.080Z,19.10
2018-05-14T17:05:09.587Z,19.20
2018-05-14T17:07:37.817Z,19.00
2018-05-14T17:10:05.264Z,18.90
2018-05-14T17:12:32.769Z,18.80
2018-05-14T17:15:01.038Z,18.80
2018-05-14T17:17:28.586Z,18.80
2018-05-14T17:19:56.002Z,18.80
2018-05-14T17:22:23.457Z,18.80
2018-05-14T17:24:50.915Z,19.00
2018-05-14T17:27:18.390Z,19.20
2018-05-14T17:29:45.844Z,19.20
2018-05-14T17:32:13.733Z,19.20
2018-05-14T17:34:41.186Z,19.10
2018-05-14T17:37:09.493Z,19.10
2018-05-14T17:39:37.715Z,18.80
2018-05-14T17:42:05.167Z,18.80
2018-05-14T17:44:32.916Z,18.60
2018-05-14T17:47:02.429Z,18.50
2018-05-14T17:49:30.596Z,18.40
2018-05-14T17:51:58.099Z,18.30
2018-05-14T17:54:28.032Z,18.30
2018-05-14T17:56:56.252Z,18.20
2018-05-14T17:59:26.994Z,18.10
2018-05-14T18:01:54.436Z,18.10
2018-05-14T18:04:22.558Z,18.00
2018-05-14T18:06:50.018Z,17.90
2018-05-14T18:09:17.482Z,17.90
2018-05-14T18:11:44.933Z,17.90
2018-05-14T18:14:12.396Z,17.90
2018-05-14T18:16:39.876Z,18.00
2018-05-14T18:19:07.332Z,18.00
2018-05-14T18:21:37.628Z,18.10
2018-05-14T18:24:05.863Z,18.10
2018-05-14T18:26:39.044Z,18.10
2018-05-14T18:29:09.167Z,18.10
2018-05-14T18:31:42.497Z,18.00
2018-05-14T18:34:09.977Z,17.90
2018-05-14T18:36:38.287Z,17.60
2018-05-14T18:39:05.809Z,17.50
2018-05-14T18:41:33.582Z,17.40
2018-05-14T18:44:01.817Z,17.20
2018-05-14T18:46:29.284Z,17.20
2018-05-14T18:48:56.741Z,17.10
2018-05-14T18:51:25.028Z,17.10
2018-05-14T18:53:52.488Z,17.00
2018-05-14T18:56:19.996Z,16.90
2018-05-14T18:58:47.736Z,16.90
2018-05-14T19:01:16.588Z,16.90
2018-05-14T19:03:44.719Z,16.80
2018-05-14T19:06:13.577Z,16.80
2018-05-14T19:08:42.194Z,16.70
2018-05-14T19:11:15.605Z,16.60
2018-05-14T19:13:43.063Z,16.50
2018-05-14T19:16:18.233Z,16.30
2018-05-14T19:18:45.699Z,16.10
2018-05-14T19:21:14.479Z,15.80
2018-05-14T19:23:47.679Z,15.70
2018-05-14T19:26:15.280Z,15.60
2018-05-14T19:28:48.441Z,15.40
2018-05-14T19:31:16.665Z,15.10
2018-05-14T19:33:49.960Z,15.00
2018-05-14T19:36:17.433Z,14.90
2018-05-14T19:38:45.316Z,14.80
2018-05-14T19:41:12.785Z,14.80
2018-05-14T19:43:41.011Z,14.70
2018-05-14T19:46:08.921Z,14.60
2018-05-14T19:48:37.096Z,14.60
2018-05-14T19:51:05.057Z,14.50
2018-05-14T19:53:34.417Z,14.50
2018-05-14T19:56:01.880Z,14.40
2018-05-14T19:58:29.333Z,14.30
2018-05-14T20:00:56.886Z,14.30
2018-05-14T20:03:24.305Z,14.30
2018-05-14T20:05:51.750Z,14.20
2018-05-14T20:08:19.202Z,14.20
2018-05-14T20:10:46.643Z,14.10
2018-05-14T20:13:14.672Z,14.10
2018-05-14T20:15:42.130Z,14.30
2018-05-14T20:18:09.581Z,14.40
2018-05-14T20:20:37.036Z,14.50
2018-05-14T20:23:05.408Z,14.60
2018-05-14T20:25:32.859Z,14.70
2018-05-14T20:28:01.635Z,14.70
2018-05-14T20:30:29.855Z,14.70
2018-05-14T20:32:57.309Z,14.70
2018-05-14T20:35:24.768Z,14.70
2018-05-14T20:37:52.244Z,14.80
2018-05-14T20:40:19.921Z,14.80
2018-05-14T20:42:48.127Z,14.80
2018-05-14T20:45:16.748Z,14.70
2018-05-14T20:47:44.647Z,14.70
2018-05-14T20:50:12.103Z,14.70
2018-05-14T20:52:40.956Z,14.70
2018-05-14T20:55:08.414Z,14.80
2018-05-14T20:57:35.871Z,14.80
2018-05-14T21:00:03.336Z,14.80
2018-05-14T21:02:30.789Z,14.80
2018-05-14T21:04:58.253Z,15.00
2018-05-14T21:07:25.725Z,15.00
2018-05-14T21:09:53.184Z,14.90
2018-05-14T21:12:20.653Z,14.90
2018-05-14T21:14:48.138Z,14.90
2018-05-14T21:17:17.086Z,14.90
2018-05-14T21:19:44.539Z,14.90
2018-05-14T21:22:11.990Z,15.00
2018-05-14T21:24:39.454Z,15.00
2018-05-14T21:27:06.937Z,15.10
2018-05-14T21:29:34.404Z,15.10
2018-05-14T21:32:02.313Z,15.10
2018-05-14T21:34:29.765Z,15.00
2018-05-14T21:36:57.229Z,14.90
2018-05-14T21:39:24.832Z,14.80
2018-05-14T21:41:53.023Z,14.60
2018-05-14T21:44:20.555Z,14.60
2018-05-14T21:46:48.036Z,14.50
2018-05-14T21:49:15.472Z,14.40
2018-05-14T21:51:43.463Z,14.30
2018-05-14T21:54:11.743Z,14.30
2018-05-14T21:56:40.483Z,14.40
2018-05-14T21:59:07.948Z,14.40
2018-05-14T22:01:35.687Z,14.40
2018-05-14T22:04:03.127Z,14.40
2018-05-14T22:06:31.340Z,14.60
2018-05-14T22:08:58.797Z,14.60
2018-05-14T22:11:26.859Z,14.50
2018-05-14T22:13:54.408Z,14.50
2018-05-14T22:16:21.844Z,14.40
2018-05-14T22:18:49.324Z,14.50
2018-05-14T22:21:16.779Z,14.50
2018-05-14T22:23:44.275Z,14.40
2018-05-14T22:26:12.747Z,14.40
2018-05-14T22:28:40.211Z,14.40
2018-05-14T22:31:07.689Z,14.20
2018-05-14T22:33:36.009Z,14.20
2018-05-14T22:36:03.453Z,14.10
2018-05-14T22:38:30.964Z,14.00
2018-05-14T22:40:58.422Z,13.90
2018-05-14T22:43:25.888Z,14.00
2018-05-14T22:45:53.760Z,13.90
2018-05-14T22:48:21.225Z,14.00
2018-05-14T22:50:49.439Z,14.10
2018-05-14T22:53:16.932Z,14.10
2018-05-14T22:55:44.905Z,14.30
2018-05-14T22:58:12.352Z,14.50
2018-05-14T23:00:39.807Z,14.60
2018-05-14T23:03:07.372Z,14.70
2018-05-14T23:05:34.816Z,14.70
2018-05-14T23:08:02.319Z,14.70
2018-05-14T23:10:29.734Z,14.80
2018-05-14T23:12:57.184Z,14.80
2018-05-14T23:15:24.659Z,14.70
2018-05-14T23:17:52.108Z,14.80
2018-05-14T23:20:19.571Z,14.80
2018-05-14T23:22:47.297Z,14.80
2018-05-14T23:25:14.794Z,14.90
2018-05-14T23:27:42.253Z,14.90
2018-05-14T23:30:09.722Z,14.80
2018-05-14T23:32:37.172Z,14.80
2018-05-14T23:35:05.032Z,14.90
2018-05-14T23:37:32.487Z,14.90
2018-05-14T23:40:01.445Z,14.90
2018-05-14T23:42:28.915Z,14.90
2018-05-14T23:44:56.391Z,15.00
2018-05-14T23:47:23.840Z,15.00
2018-05-14T23:49:51.309Z,15.00
2018-05-14T23:52:18.802Z,14.90
2018-05-14T23:54:47.349Z,14.80
2018-05-14T23:57:14.799Z,14.80
2018-05-14T23:59:42.268Z,14.60
